sensor_id;sensor_type;location;lat;lon;timestamp;P1;durP1;ratioP1;P2;durP2;ratioP2
68212;SDS011;55035;47.792;8.724;2022-09-30T00:00:53;7.43;;;2.60;;
68212;SDS011;55035;47.792;8.724;2022-09-30T00:03:22;6.80;;;2.55;;
68212;SDS011;55035;47.792;8.724;2022-09-30T00:05:54;7.32;;;2.60;;
68212;SDS011;55035;47.792;8.724;2022-09-30T00:08:21;6.57;;;2.65;;
68212;SDS011;55035;47.792;8.724;2022-09-30T00:10:56;6.40;;;2.83;;
68212;SDS011;55035;47.792;8.724;2022-09-30T00:13:23;7.07;;;2.60;;
68212;SDS011;55035;47.792;8.724;2022-09-30T00:15:50;6.95;;;2.78;;
68212;SDS011;55035;47.792;8.724;2022-09-30T00:18:17;8.75;;;2.95;;
68212;SDS011;55035;47.792;8.724;2022-09-30T00:20:45;8.02;;;2.90;;
68212;SDS011;55035;47.792;8.724;2022-09-30T00:23:12;7.40;;;2.90;;
68212;SDS011;55035;47.792;8.724;2022-09-30T00:25:38;7.03;;;2.78;;
68212;SDS011;55035;47.792;8.724;2022-09-30T00:28:05;8.00;;;3.00;;
68212;SDS011;55035;47.792;8.724;2022-09-30T00:30:32;6.65;;;2.72;;
68212;SDS011;55035;47.792;8.724;2022-09-30T00:32:59;6.82;;;2.80;;
68212;SDS011;55035;47.792;8.724;2022-09-30T00:35:26;6.88;;;2.90;;
68212;SDS011;55035;47.792;8.724;2022-09-30T00:37:54;9.20;;;3.00;;
68212;SDS011;55035;47.792;8.724;2022-09-30T00:40:21;8.48;;;3.22;;
68212;SDS011;55035;47.792;8.724;2022-09-30T00:42:48;8.57;;;3.50;;
68212;SDS011;55035;47.792;8.724;2022-09-30T00:45:14;9.27;;;3.38;;
68212;SDS011;55035;47.792;8.724;2022-09-30T00:47:47;8.40;;;3.38;;
68212;SDS011;55035;47.792;8.724;2022-09-30T00:53:06;9.10;;;3.88;;
68212;SDS011;55035;47.792;8.724;2022-09-30T00:55:39;9.20;;;3.88;;
68212;SDS011;55035;47.792;8.724;2022-09-30T00:58:08;10.95;;;4.47;;
68212;SDS011;55035;47.792;8.724;2022-09-30T01:00:37;9.60;;;3.63;;
68212;SDS011;55035;47.792;8.724;2022-09-30T01:03:04;9.65;;;4.00;;
68212;SDS011;55035;47.792;8.724;2022-09-30T01:05:32;7.25;;;3.10;;
68212;SDS011;55035;47.792;8.724;2022-09-30T01:07:59;10.32;;;3.85;;
68212;SDS011;55035;47.792;8.724;2022-09-30T01:10:28;9.65;;;3.30;;
68212;SDS011;55035;47.792;8.724;2022-09-30T01:12:55;9.05;;;3.67;;
68212;SDS011;55035;47.792;8.724;2022-09-30T01:15:23;10.32;;;3.40;;
68212;SDS011;55035;47.792;8.724;2022-09-30T01:17:53;12.20;;;3.88;;
68212;SDS011;55035;47.792;8.724;2022-09-30T01:20:26;8.65;;;3.63;;
68212;SDS011;55035;47.792;8.724;2022-09-30T01:23:00;8.50;;;3.20;;
68212;SDS011;55035;47.792;8.724;2022-09-30T01:28:29;7.38;;;3.45;;
68212;SDS011;55035;47.792;8.724;2022-09-30T01:31:03;7.60;;;3.10;;
68212;SDS011;55035;47.792;8.724;2022-09-30T01:33:36;7.10;;;3.08;;
68212;SDS011;55035;47.792;8.724;2022-09-30T01:36:13;7.55;;;2.85;;
68212;SDS011;55035;47.792;8.724;2022-09-30T01:38:46;7.22;;;2.92;;
68212;SDS011;55035;47.792;8.724;2022-09-30T01:41:17;7.22;;;2.60;;
68212;SDS011;55035;47.792;8.724;2022-09-30T01:43:49;7.20;;;2.78;;
68212;SDS011;55035;47.792;8.724;2022-09-30T01:46:22;10.45;;;2.78;;
68212;SDS011;55035;47.792;8.724;2022-09-30T01:48:54;6.68;;;2.50;;
68212;SDS011;55035;47.792;8.724;2022-09-30T01:51:24;6.65;;;2.70;;
68212;SDS011;55035;47.792;8.724;2022-09-30T01:53:55;8.32;;;3.05;;
68212;SDS011;55035;47.792;8.724;2022-09-30T01:56:23;7.68;;;3.17;;
68212;SDS011;55035;47.792;8.724;2022-09-30T01:58:53;7.53;;;3.10;;
68212;SDS011;55035;47.792;8.724;2022-09-30T02:01:23;9.48;;;3.10;;
68212;SDS011;55035;47.792;8.724;2022-09-30T02:03:52;7.93;;;2.78;;
68212;SDS011;55035;47.792;8.724;2022-09-30T02:06:22;15.75;;;3.50;;
68212;SDS011;55035;47.792;8.724;2022-09-30T02:08:52;16.05;;;3.67;;
68212;SDS011;55035;47.792;8.724;2022-09-30T02:11:21;10.73;;;3.28;;
68212;SDS011;55035;47.792;8.724;2022-09-30T02:13:50;11.27;;;3.25;;
68212;SDS011;55035;47.792;8.724;2022-09-30T02:16:19;14.05;;;3.10;;
68212;SDS011;55035;47.792;8.724;2022-09-30T02:18:49;8.07;;;3.00;;
68212;SDS011;55035;47.792;8.724;2022-09-30T02:21:19;35.33;;;3.97;;
68212;SDS011;55035;47.792;8.724;2022-09-30T02:23:47;11.65;;;3.08;;
68212;SDS011;55035;47.792;8.724;2022-09-30T02:26:18;26.55;;;3.70;;
68212;SDS011;55035;47.792;8.724;2022-09-30T02:28:46;10.35;;;3.17;;
68212;SDS011;55035;47.792;8.724;2022-09-30T02:31:15;19.50;;;3.58;;
68212;SDS011;55035;47.792;8.724;2022-09-30T02:33:43;35.80;;;3.50;;
68212;SDS011;55035;47.792;8.724;2022-09-30T02:36:14;9.30;;;3.53;;
68212;SDS011;55035;47.792;8.724;2022-09-30T02:38:44;9.38;;;3.15;;
68212;SDS011;55035;47.792;8.724;2022-09-30T02:41:14;9.85;;;3.70;;
68212;SDS011;55035;47.792;8.724;2022-09-30T02:43:44;14.48;;;3.55;;
68212;SDS011;55035;47.792;8.724;2022-09-30T02:46:14;11.52;;;4.10;;
68212;SDS011;55035;47.792;8.724;2022-09-30T02:48:45;10.30;;;3.90;;
68212;SDS011;55035;47.792;8.724;2022-09-30T02:51:18;9.55;;;4.07;;
68212;SDS011;55035;47.792;8.724;2022-09-30T02:53:48;10.55;;;4.05;;
68212;SDS011;55035;47.792;8.724;2022-09-30T02:56:19;10.18;;;4.32;;
68212;SDS011;55035;47.792;8.724;2022-09-30T02:58:47;11.52;;;3.85;;
68212;SDS011;55035;47.792;8.724;2022-09-30T03:01:15;9.65;;;4.18;;
68212;SDS011;55035;47.792;8.724;2022-09-30T03:03:44;11.55;;;4.25;;
68212;SDS011;55035;47.792;8.724;2022-09-30T03:06:11;9.00;;;3.90;;
68212;SDS011;55035;47.792;8.724;2022-09-30T03:08:40;9.05;;;3.97;;
68212;SDS011;55035;47.792;8.724;2022-09-30T03:11:09;10.60;;;3.55;;
68212;SDS011;55035;47.792;8.724;2022-09-30T03:13:50;9.80;;;3.80;;
68212;SDS011;55035;47.792;8.724;2022-09-30T03:16:21;9.43;;;3.83;;
68212;SDS011;55035;47.792;8.724;2022-09-30T03:18:59;7.82;;;3.30;;
68212;SDS011;55035;47.792;8.724;2022-09-30T03:21:33;8.88;;;3.70;;
68212;SDS011;55035;47.792;8.724;2022-09-30T03:24:11;8.20;;;3.30;;
68212;SDS011;55035;47.792;8.724;2022-09-30T03:26:44;9.85;;;3.88;;
68212;SDS011;55035;47.792;8.724;2022-09-30T03:29:16;11.23;;;4.30;;
68212;SDS011;55035;47.792;8.724;2022-09-30T03:31:48;10.23;;;4.30;;
68212;SDS011;55035;47.792;8.724;2022-09-30T03:34:19;9.13;;;4.15;;
68212;SDS011;55035;47.792;8.724;2022-09-30T03:36:55;10.68;;;4.35;;
68212;SDS011;55035;47.792;8.724;2022-09-30T03:39:36;9.15;;;4.20;;
68212;SDS011;55035;47.792;8.724;2022-09-30T03:42:06;9.38;;;4.07;;
68212;SDS011;55035;47.792;8.724;2022-09-30T03:44:37;10.13;;;4.05;;
68212;SDS011;55035;47.792;8.724;2022-09-30T03:47:06;10.68;;;4.45;;
68212;SDS011;55035;47.792;8.724;2022-09-30T03:49:35;11.23;;;4.72;;
68212;SDS011;55035;47.792;8.724;2022-09-30T03:52:04;10.05;;;4.50;;
68212;SDS011;55035;47.792;8.724;2022-09-30T03:54:33;11.73;;;4.72;;
68212;SDS011;55035;47.792;8.724;2022-09-30T03:57:03;10.27;;;4.30;;
68212;SDS011;55035;47.792;8.724;2022-09-30T03:59:30;11.15;;;3.80;;
68212;SDS011;55035;47.792;8.724;2022-09-30T04:01:57;9.77;;;4.00;;
68212;SDS011;55035;47.792;8.724;2022-09-30T04:04:23;9.25;;;3.92;;
68212;SDS011;55035;47.792;8.724;2022-09-30T04:06:50;10.52;;;4.57;;
68212;SDS011;55035;47.792;8.724;2022-09-30T04:09:17;10.75;;;4.07;;
68212;SDS011;55035;47.792;8.724;2022-09-30T04:11:45;11.07;;;4.50;;
68212;SDS011;55035;47.792;8.724;2022-09-30T04:14:12;10.35;;;4.28;;
68212;SDS011;55035;47.792;8.724;2022-09-30T04:16:39;9.38;;;3.90;;
68212;SDS011;55035;47.792;8.724;2022-09-30T04:19:07;9.13;;;3.90;;
68212;SDS011;55035;47.792;8.724;2022-09-30T04:21:33;10.13;;;3.92;;
68212;SDS011;55035;47.792;8.724;2022-09-30T04:24:00;9.10;;;3.88;;
68212;SDS011;55035;47.792;8.724;2022-09-30T04:26:27;9.98;;;3.78;;
68212;SDS011;55035;47.792;8.724;2022-09-30T04:28:55;8.85;;;3.92;;
68212;SDS011;55035;47.792;8.724;2022-09-30T04:31:23;9.15;;;3.88;;
68212;SDS011;55035;47.792;8.724;2022-09-30T04:33:50;9.20;;;3.83;;
68212;SDS011;55035;47.792;8.724;2022-09-30T04:36:16;10.88;;;4.03;;
68212;SDS011;55035;47.792;8.724;2022-09-30T04:38:43;9.15;;;3.90;;
68212;SDS011;55035;47.792;8.724;2022-09-30T04:41:12;8.55;;;3.33;;
68212;SDS011;55035;47.792;8.724;2022-09-30T04:43:40;9.13;;;3.65;;
68212;SDS011;55035;47.792;8.724;2022-09-30T04:46:10;8.70;;;3.47;;
68212;SDS011;55035;47.792;8.724;2022-09-30T04:48:37;9.93;;;3.90;;
68212;SDS011;55035;47.792;8.724;2022-09-30T04:51:04;15.48;;;6.97;;
68212;SDS011;55035;47.792;8.724;2022-09-30T04:53:31;10.00;;;4.30;;
68212;SDS011;55035;47.792;8.724;2022-09-30T04:55:59;18.40;;;4.95;;
68212;SDS011;55035;47.792;8.724;2022-09-30T04:58:26;9.65;;;4.18;;
68212;SDS011;55035;47.792;8.724;2022-09-30T05:00:58;10.40;;;4.80;;
68212;SDS011;55035;47.792;8.724;2022-09-30T05:03:26;10.88;;;4.57;;
68212;SDS011;55035;47.792;8.724;2022-09-30T05:05:53;8.88;;;3.92;;
68212;SDS011;55035;47.792;8.724;2022-09-30T05:08:20;9.13;;;4.30;;
68212;SDS011;55035;47.792;8.724;2022-09-30T05:10:52;11.05;;;4.13;;
68212;SDS011;55035;47.792;8.724;2022-09-30T05:13:19;11.65;;;3.67;;
68212;SDS011;55035;47.792;8.724;2022-09-30T05:15:47;11.07;;;3.55;;
68212;SDS011;55035;47.792;8.724;2022-09-30T05:18:14;9.65;;;4.15;;
68212;SDS011;55035;47.792;8.724;2022-09-30T05:20:43;9.65;;;4.05;;
68212;SDS011;55035;47.792;8.724;2022-09-30T05:23:09;9.32;;;4.20;;
68212;SDS011;55035;47.792;8.724;2022-09-30T05:25:36;8.15;;;3.63;;
68212;SDS011;55035;47.792;8.724;2022-09-30T05:28:04;10.38;;;4.10;;
68212;SDS011;55035;47.792;8.724;2022-09-30T05:30:30;9.68;;;3.78;;
68212;SDS011;55035;47.792;8.724;2022-09-30T05:32:57;8.82;;;4.10;;
68212;SDS011;55035;47.792;8.724;2022-09-30T05:35:24;8.90;;;3.97;;
68212;SDS011;55035;47.792;8.724;2022-09-30T05:37:55;9.77;;;4.03;;
68212;SDS011;55035;47.792;8.724;2022-09-30T05:40:23;9.55;;;3.60;;
68212;SDS011;55035;47.792;8.724;2022-09-30T05:42:50;8.90;;;3.90;;
68212;SDS011;55035;47.792;8.724;2022-09-30T05:45:17;11.07;;;4.07;;
68212;SDS011;55035;47.792;8.724;2022-09-30T05:47:49;8.63;;;3.80;;
68212;SDS011;55035;47.792;8.724;2022-09-30T05:50:16;8.82;;;3.80;;
68212;SDS011;55035;47.792;8.724;2022-09-30T05:52:43;8.25;;;3.63;;
68212;SDS011;55035;47.792;8.724;2022-09-30T05:55:11;10.45;;;3.88;;
68212;SDS011;55035;47.792;8.724;2022-09-30T05:57:38;8.95;;;3.70;;
68212;SDS011;55035;47.792;8.724;2022-09-30T06:00:06;8.88;;;3.90;;
68212;SDS011;55035;47.792;8.724;2022-09-30T06:02:37;10.07;;;4.10;;
68212;SDS011;55035;47.792;8.724;2022-09-30T06:05:04;8.75;;;3.83;;
68212;SDS011;55035;47.792;8.724;2022-09-30T06:07:31;8.70;;;3.67;;
68212;SDS011;55035;47.792;8.724;2022-09-30T06:09:58;9.88;;;3.92;;
68212;SDS011;55035;47.792;8.724;2022-09-30T06:12:27;10.88;;;3.88;;
68212;SDS011;55035;47.792;8.724;2022-09-30T06:14:54;11.73;;;4.80;;
68212;SDS011;55035;47.792;8.724;2022-09-30T06:17:21;10.45;;;4.35;;
68212;SDS011;55035;47.792;8.724;2022-09-30T06:19:48;10.55;;;3.90;;
68212;SDS011;55035;47.792;8.724;2022-09-30T06:22:15;11.95;;;4.50;;
68212;SDS011;55035;47.792;8.724;2022-09-30T06:24:42;9.82;;;4.10;;
68212;SDS011;55035;47.792;8.724;2022-09-30T06:27:09;10.90;;;4.63;;
68212;SDS011;55035;47.792;8.724;2022-09-30T06:29:37;9.27;;;4.13;;
68212;SDS011;55035;47.792;8.724;2022-09-30T06:32:04;10.35;;;4.45;;
68212;SDS011;55035;47.792;8.724;2022-09-30T06:34:32;10.32;;;4.05;;
68212;SDS011;55035;47.792;8.724;2022-09-30T06:36:59;8.90;;;3.47;;
68212;SDS011;55035;47.792;8.724;2022-09-30T06:39:25;9.43;;;3.63;;
68212;SDS011;55035;47.792;8.724;2022-09-30T06:41:52;8.63;;;3.60;;
68212;SDS011;55035;47.792;8.724;2022-09-30T06:44:23;8.32;;;3.88;;
68212;SDS011;55035;47.792;8.724;2022-09-30T06:46:51;10.18;;;3.70;;
68212;SDS011;55035;47.792;8.724;2022-09-30T06:49:18;9.10;;;4.00;;
68212;SDS011;55035;47.792;8.724;2022-09-30T06:51:45;8.30;;;3.67;;
68212;SDS011;55035;47.792;8.724;2022-09-30T06:54:13;8.50;;;3.40;;
68212;SDS011;55035;47.792;8.724;2022-09-30T06:56:40;7.85;;;3.60;;
68212;SDS011;55035;47.792;8.724;2022-09-30T06:59:08;7.03;;;3.20;;
68212;SDS011;55035;47.792;8.724;2022-09-30T07:01:35;9.70;;;3.72;;
68212;SDS011;55035;47.792;8.724;2022-09-30T07:04:04;9.23;;;3.60;;
68212;SDS011;55035;47.792;8.724;2022-09-30T07:06:34;9.37;;;3.30;;
68212;SDS011;55035;47.792;8.724;2022-09-30T07:09:03;8.75;;;3.70;;
68212;SDS011;55035;47.792;8.724;2022-09-30T07:11:29;9.82;;;3.53;;
68212;SDS011;55035;47.792;8.724;2022-09-30T07:13:56;8.45;;;3.83;;
68212;SDS011;55035;47.792;8.724;2022-09-30T07:16:23;9.35;;;4.20;;
68212;SDS011;55035;47.792;8.724;2022-09-30T07:18:50;8.63;;;4.00;;
68212;SDS011;55035;47.792;8.724;2022-09-30T07:21:18;9.07;;;3.63;;
68212;SDS011;55035;47.792;8.724;2022-09-30T07:23:45;8.43;;;3.97;;
68212;SDS011;55035;47.792;8.724;2022-09-30T07:26:13;12.48;;;5.63;;
68212;SDS011;55035;47.792;8.724;2022-09-30T07:28:40;11.77;;;5.60;;
68212;SDS011;55035;47.792;8.724;2022-09-30T07:31:14;12.15;;;5.80;;
68212;SDS011;55035;47.792;8.724;2022-09-30T07:33:42;9.30;;;4.18;;
68212;SDS011;55035;47.792;8.724;2022-09-30T07:36:09;12.32;;;4.40;;
68212;SDS011;55035;47.792;8.724;2022-09-30T07:38:38;10.00;;;4.47;;
68212;SDS011;55035;47.792;8.724;2022-09-30T07:41:06;9.50;;;4.30;;
68212;SDS011;55035;47.792;8.724;2022-09-30T07:43:34;12.20;;;4.88;;
68212;SDS011;55035;47.792;8.724;2022-09-30T07:46:04;12.20;;;4.78;;
68212;SDS011;55035;47.792;8.724;2022-09-30T07:48:31;51.17;;;27.10;;
68212;SDS011;55035;47.792;8.724;2022-09-30T07:51:13;21.98;;;10.63;;
68212;SDS011;55035;47.792;8.724;2022-09-30T07:53:43;10.50;;;4.88;;
68212;SDS011;55035;47.792;8.724;2022-09-30T07:56:10;14.30;;;6.70;;
68212;SDS011;55035;47.792;8.724;2022-09-30T07:58:38;14.90;;;6.07;;
68212;SDS011;55035;47.792;8.724;2022-09-30T08:01:08;12.43;;;5.30;;
68212;SDS011;55035;47.792;8.724;2022-09-30T08:04:04;10.10;;;5.15;;
68212;SDS011;55035;47.792;8.724;2022-09-30T08:06:31;10.25;;;4.97;;
68212;SDS011;55035;47.792;8.724;2022-09-30T08:09:03;11.02;;;4.65;;
68212;SDS011;55035;47.792;8.724;2022-09-30T08:11:31;10.48;;;4.78;;
68212;SDS011;55035;47.792;8.724;2022-09-30T08:13:58;10.27;;;4.95;;
68212;SDS011;55035;47.792;8.724;2022-09-30T08:16:25;14.55;;;5.07;;
68212;SDS011;55035;47.792;8.724;2022-09-30T08:18:53;10.20;;;4.75;;
68212;SDS011;55035;47.792;8.724;2022-09-30T08:21:20;10.70;;;5.55;;
68212;SDS011;55035;47.792;8.724;2022-09-30T08:23:47;10.20;;;4.60;;
68212;SDS011;55035;47.792;8.724;2022-09-30T08:26:15;8.95;;;3.97;;
68212;SDS011;55035;47.792;8.724;2022-09-30T08:28:43;9.77;;;3.65;;
68212;SDS011;55035;47.792;8.724;2022-09-30T08:31:12;8.80;;;4.00;;
68212;SDS011;55035;47.792;8.724;2022-09-30T08:33:39;7.88;;;3.70;;
68212;SDS011;55035;47.792;8.724;2022-09-30T08:36:07;10.52;;;4.53;;
68212;SDS011;55035;47.792;8.724;2022-09-30T08:38:34;8.15;;;3.35;;
68212;SDS011;55035;47.792;8.724;2022-09-30T08:41:05;8.25;;;3.30;;
68212;SDS011;55035;47.792;8.724;2022-09-30T08:43:38;9.95;;;3.20;;
68212;SDS011;55035;47.792;8.724;2022-09-30T08:46:07;10.30;;;3.90;;
68212;SDS011;55035;47.792;8.724;2022-09-30T08:48:38;11.70;;;5.38;;
68212;SDS011;55035;47.792;8.724;2022-09-30T08:51:09;8.88;;;3.72;;
68212;SDS011;55035;47.792;8.724;2022-09-30T08:53:46;8.52;;;3.53;;
68212;SDS011;55035;47.792;8.724;2022-09-30T08:56:16;7.75;;;3.10;;
68212;SDS011;55035;47.792;8.724;2022-09-30T08:58:46;7.77;;;3.20;;
68212;SDS011;55035;47.792;8.724;2022-09-30T09:01:14;7.10;;;2.97;;
68212;SDS011;55035;47.792;8.724;2022-09-30T09:03:42;6.78;;;2.75;;
68212;SDS011;55035;47.792;8.724;2022-09-30T09:06:17;7.10;;;2.85;;
68212;SDS011;55035;47.792;8.724;2022-09-30T09:08:52;6.18;;;2.35;;
68212;SDS011;55035;47.792;8.724;2022-09-30T09:11:22;7.07;;;2.97;;
68212;SDS011;55035;47.792;8.724;2022-09-30T09:13:57;6.57;;;2.78;;
68212;SDS011;55035;47.792;8.724;2022-09-30T09:16:27;7.53;;;2.97;;
68212;SDS011;55035;47.792;8.724;2022-09-30T09:18:57;6.82;;;2.50;;
68212;SDS011;55035;47.792;8.724;2022-09-30T09:21:28;6.60;;;2.50;;
68212;SDS011;55035;47.792;8.724;2022-09-30T09:23:59;6.60;;;2.80;;
68212;SDS011;55035;47.792;8.724;2022-09-30T09:26:26;7.10;;;2.63;;
68212;SDS011;55035;47.792;8.724;2022-09-30T09:29:02;5.85;;;2.10;;
68212;SDS011;55035;47.792;8.724;2022-09-30T09:31:31;7.32;;;2.95;;
68212;SDS011;55035;47.792;8.724;2022-09-30T09:33:58;6.60;;;2.80;;
68212;SDS011;55035;47.792;8.724;2022-09-30T09:36:32;7.93;;;3.47;;
68212;SDS011;55035;47.792;8.724;2022-09-30T09:39:12;6.47;;;2.85;;
68212;SDS011;55035;47.792;8.724;2022-09-30T09:41:45;6.60;;;2.67;;
68212;SDS011;55035;47.792;8.724;2022-09-30T09:44:21;13.75;;;6.10;;
68212;SDS011;55035;47.792;8.724;2022-09-30T09:46:50;6.70;;;2.67;;
68212;SDS011;55035;47.792;8.724;2022-09-30T09:52:14;6.20;;;2.58;;
68212;SDS011;55035;47.792;8.724;2022-09-30T09:54:50;6.50;;;2.33;;
68212;SDS011;55035;47.792;8.724;2022-09-30T09:57:18;8.00;;;2.63;;
68212;SDS011;55035;47.792;8.724;2022-09-30T09:59:56;6.00;;;2.40;;
68212;SDS011;55035;47.792;8.724;2022-09-30T10:02:24;5.80;;;1.90;;
68212;SDS011;55035;47.792;8.724;2022-09-30T10:04:51;8.57;;;2.17;;
68212;SDS011;55035;47.792;8.724;2022-09-30T10:07:28;5.50;;;1.85;;
68212;SDS011;55035;47.792;8.724;2022-09-30T10:10:06;5.10;;;1.73;;
68212;SDS011;55035;47.792;8.724;2022-09-30T10:12:34;4.30;;;1.15;;
68212;SDS011;55035;47.792;8.724;2022-09-30T10:15:04;4.20;;;0.83;;
68212;SDS011;55035;47.792;8.724;2022-09-30T10:17:37;4.43;;;1.00;;
68212;SDS011;55035;47.792;8.724;2022-09-30T10:20:05;4.15;;;1.05;;
68212;SDS011;55035;47.792;8.724;2022-09-30T10:22:33;4.60;;;1.30;;
68212;SDS011;55035;47.792;8.724;2022-09-30T10:25:15;4.40;;;1.25;;
68212;SDS011;55035;47.792;8.724;2022-09-30T10:27:47;4.67;;;1.70;;
68212;SDS011;55035;47.792;8.724;2022-09-30T10:30:26;5.05;;;1.60;;
68212;SDS011;55035;47.792;8.724;2022-09-30T10:32:59;4.55;;;1.38;;
68212;SDS011;55035;47.792;8.724;2022-09-30T10:35:28;4.20;;;1.20;;
68212;SDS011;55035;47.792;8.724;2022-09-30T10:37:57;4.13;;;1.23;;
68212;SDS011;55035;47.792;8.724;2022-09-30T10:40:25;3.70;;;0.93;;
68212;SDS011;55035;47.792;8.724;2022-09-30T10:42:53;4.63;;;1.08;;
68212;SDS011;55035;47.792;8.724;2022-09-30T10:45:21;4.70;;;1.48;;
68212;SDS011;55035;47.792;8.724;2022-09-30T10:47:52;4.50;;;1.50;;
68212;SDS011;55035;47.792;8.724;2022-09-30T10:50:20;5.30;;;1.15;;
68212;SDS011;55035;47.792;8.724;2022-09-30T10:52:49;5.87;;;1.40;;
68212;SDS011;55035;47.792;8.724;2022-09-30T10:55:27;6.75;;;1.73;;
68212;SDS011;55035;47.792;8.724;2022-09-30T10:57:54;5.07;;;1.88;;
68212;SDS011;55035;47.792;8.724;2022-09-30T11:00:24;5.68;;;1.77;;
68212;SDS011;55035;47.792;8.724;2022-09-30T11:02:59;5.90;;;1.77;;
68212;SDS011;55035;47.792;8.724;2022-09-30T11:05:30;5.03;;;1.40;;
68212;SDS011;55035;47.792;8.724;2022-09-30T11:07:58;5.97;;;1.90;;
68212;SDS011;55035;47.792;8.724;2022-09-30T11:10:30;4.90;;;1.67;;
68212;SDS011;55035;47.792;8.724;2022-09-30T11:13:00;4.95;;;1.42;;
68212;SDS011;55035;47.792;8.724;2022-09-30T11:15:29;5.25;;;2.05;;
68212;SDS011;55035;47.792;8.724;2022-09-30T11:18:00;5.97;;;2.27;;
68212;SDS011;55035;47.792;8.724;2022-09-30T11:20:28;7.20;;;2.10;;
68212;SDS011;55035;47.792;8.724;2022-09-30T11:22:58;4.70;;;1.50;;
68212;SDS011;55035;47.792;8.724;2022-09-30T11:25:29;5.63;;;1.70;;
68212;SDS011;55035;47.792;8.724;2022-09-30T11:28:04;5.15;;;1.92;;
68212;SDS011;55035;47.792;8.724;2022-09-30T11:30:35;5.20;;;1.80;;
68212;SDS011;55035;47.792;8.724;2022-09-30T11:33:20;4.70;;;1.52;;
68212;SDS011;55035;47.792;8.724;2022-09-30T11:35:54;5.22;;;2.05;;
68212;SDS011;55035;47.792;8.724;2022-09-30T11:38:29;5.68;;;2.10;;
68212;SDS011;55035;47.792;8.724;2022-09-30T11:41:06;5.13;;;2.00;;
68212;SDS011;55035;47.792;8.724;2022-09-30T11:43:37;5.07;;;1.80;;
68212;SDS011;55035;47.792;8.724;2022-09-30T11:46:19;7.20;;;2.75;;
68212;SDS011;55035;47.792;8.724;2022-09-30T11:49:01;5.45;;;2.05;;
68212;SDS011;55035;47.792;8.724;2022-09-30T11:51:35;4.70;;;1.70;;
68212;SDS011;55035;47.792;8.724;2022-09-30T11:54:07;4.85;;;1.42;;
68212;SDS011;55035;47.792;8.724;2022-09-30T11:56:42;5.03;;;1.87;;
68212;SDS011;55035;47.792;8.724;2022-09-30T11:59:13;5.43;;;1.45;;
68212;SDS011;55035;47.792;8.724;2022-09-30T12:01:43;4.78;;;1.25;;
68212;SDS011;55035;47.792;8.724;2022-09-30T12:04:13;4.95;;;1.70;;
68212;SDS011;55035;47.792;8.724;2022-09-30T12:06:42;5.13;;;1.98;;
68212;SDS011;55035;47.792;8.724;2022-09-30T12:09:13;4.50;;;1.03;;
68212;SDS011;55035;47.792;8.724;2022-09-30T12:11:42;5.00;;;1.50;;
68212;SDS011;55035;47.792;8.724;2022-09-30T12:14:12;4.38;;;1.40;;
68212;SDS011;55035;47.792;8.724;2022-09-30T12:16:40;5.50;;;1.83;;
68212;SDS011;55035;47.792;8.724;2022-09-30T12:19:11;4.88;;;1.95;;
68212;SDS011;55035;47.792;8.724;2022-09-30T12:21:42;5.10;;;1.50;;
68212;SDS011;55035;47.792;8.724;2022-09-30T12:24:12;5.07;;;1.95;;
68212;SDS011;55035;47.792;8.724;2022-09-30T12:26:40;5.05;;;2.00;;
68212;SDS011;55035;47.792;8.724;2022-09-30T12:29:10;5.38;;;2.10;;
68212;SDS011;55035;47.792;8.724;2022-09-30T12:32:08;5.50;;;2.33;;
68212;SDS011;55035;47.792;8.724;2022-09-30T12:34:45;5.50;;;2.30;;
68212;SDS011;55035;47.792;8.724;2022-09-30T12:37:30;5.50;;;2.40;;
68212;SDS011;55035;47.792;8.724;2022-09-30T12:40:06;5.63;;;2.58;;
68212;SDS011;55035;47.792;8.724;2022-09-30T12:42:50;5.20;;;2.35;;
68212;SDS011;55035;47.792;8.724;2022-09-30T12:45:25;5.43;;;1.90;;
68212;SDS011;55035;47.792;8.724;2022-09-30T12:47:58;5.40;;;2.10;;
68212;SDS011;55035;47.792;8.724;2022-09-30T12:50:29;5.95;;;2.33;;
68212;SDS011;55035;47.792;8.724;2022-09-30T12:53:07;5.82;;;2.33;;
68212;SDS011;55035;47.792;8.724;2022-09-30T12:55:36;6.00;;;2.67;;
68212;SDS011;55035;47.792;8.724;2022-09-30T12:58:04;6.00;;;2.05;;
68212;SDS011;55035;47.792;8.724;2022-09-30T13:00:31;6.43;;;2.13;;
68212;SDS011;55035;47.792;8.724;2022-09-30T13:03:02;5.50;;;1.90;;
68212;SDS011;55035;47.792;8.724;2022-09-30T13:08:40;5.93;;;2.30;;
68212;SDS011;55035;47.792;8.724;2022-09-30T13:11:30;5.65;;;2.30;;
68212;SDS011;55035;47.792;8.724;2022-09-30T13:13:58;6.10;;;2.40;;
68212;SDS011;55035;47.792;8.724;2022-09-30T13:19:18;5.60;;;1.70;;
68212;SDS011;55035;47.792;8.724;2022-09-30T13:21:45;5.43;;;1.60;;
68212;SDS011;55035;47.792;8.724;2022-09-30T13:24:14;5.60;;;1.90;;
68212;SDS011;55035;47.792;8.724;2022-09-30T13:26:44;6.07;;;2.00;;
68212;SDS011;55035;47.792;8.724;2022-09-30T13:29:27;6.05;;;1.92;;
68212;SDS011;55035;47.792;8.724;2022-09-30T13:32:02;7.07;;;2.10;;
68212;SDS011;55035;47.792;8.724;2022-09-30T13:34:30;6.10;;;2.25;;
68212;SDS011;55035;47.792;8.724;2022-09-30T13:36:58;6.05;;;2.33;;
68212;SDS011;55035;47.792;8.724;2022-09-30T13:39:27;5.67;;;2.00;;
68212;SDS011;55035;47.792;8.724;2022-09-30T13:42:03;5.70;;;2.08;;
68212;SDS011;55035;47.792;8.724;2022-09-30T13:44:34;5.65;;;1.92;;
68212;SDS011;55035;47.792;8.724;2022-09-30T13:47:06;5.10;;;2.00;;
68212;SDS011;55035;47.792;8.724;2022-09-30T13:49:37;4.90;;;1.70;;
68212;SDS011;55035;47.792;8.724;2022-09-30T13:52:06;6.00;;;1.70;;
68212;SDS011;55035;47.792;8.724;2022-09-30T13:54:35;4.68;;;1.52;;
68212;SDS011;55035;47.792;8.724;2022-09-30T13:57:05;5.45;;;1.85;;
68212;SDS011;55035;47.792;8.724;2022-09-30T13:59:38;6.35;;;1.80;;
68212;SDS011;55035;47.792;8.724;2022-09-30T14:07:40;5.05;;;1.45;;
68212;SDS011;55035;47.792;8.724;2022-09-30T14:10:21;4.40;;;1.40;;
68212;SDS011;55035;47.792;8.724;2022-09-30T14:12:58;4.95;;;1.75;;
68212;SDS011;55035;47.792;8.724;2022-09-30T14:15:34;5.65;;;1.80;;
68212;SDS011;55035;47.792;8.724;2022-09-30T14:18:13;4.67;;;1.67;;
68212;SDS011;55035;47.792;8.724;2022-09-30T14:20:51;5.22;;;1.58;;
68212;SDS011;55035;47.792;8.724;2022-09-30T14:23:23;4.50;;;1.10;;
68212;SDS011;55035;47.792;8.724;2022-09-30T14:25:53;5.35;;;1.23;;
68212;SDS011;55035;47.792;8.724;2022-09-30T14:28:24;5.07;;;1.50;;
68212;SDS011;55035;47.792;8.724;2022-09-30T14:30:58;4.70;;;1.60;;
68212;SDS011;55035;47.792;8.724;2022-09-30T14:33:34;4.68;;;1.38;;
68212;SDS011;55035;47.792;8.724;2022-09-30T14:36:05;5.38;;;1.08;;
68212;SDS011;55035;47.792;8.724;2022-09-30T14:38:33;4.20;;;1.05;;
68212;SDS011;55035;47.792;8.724;2022-09-30T14:41:03;5.00;;;1.48;;
68212;SDS011;55035;47.792;8.724;2022-09-30T14:43:34;4.83;;;1.30;;
68212;SDS011;55035;47.792;8.724;2022-09-30T14:46:03;4.82;;;1.50;;
68212;SDS011;55035;47.792;8.724;2022-09-30T14:48:31;4.88;;;1.38;;
68212;SDS011;55035;47.792;8.724;2022-09-30T14:51:00;4.50;;;1.42;;
68212;SDS011;55035;47.792;8.724;2022-09-30T14:53:29;4.25;;;1.13;;
68212;SDS011;55035;47.792;8.724;2022-09-30T14:55:56;4.30;;;1.17;;
68212;SDS011;55035;47.792;8.724;2022-09-30T14:58:25;4.35;;;1.00;;
68212;SDS011;55035;47.792;8.724;2022-09-30T15:01:04;4.22;;;1.10;;
68212;SDS011;55035;47.792;8.724;2022-09-30T15:03:33;4.60;;;0.95;;
68212;SDS011;55035;47.792;8.724;2022-09-30T15:06:00;3.95;;;1.00;;
68212;SDS011;55035;47.792;8.724;2022-09-30T15:08:27;5.27;;;1.20;;
68212;SDS011;55035;47.792;8.724;2022-09-30T15:10:54;4.03;;;1.00;;
68212;SDS011;55035;47.792;8.724;2022-09-30T15:13:23;4.88;;;1.30;;
68212;SDS011;55035;47.792;8.724;2022-09-30T15:15:51;8.38;;;1.50;;
68212;SDS011;55035;47.792;8.724;2022-09-30T15:18:25;4.40;;;1.25;;
68212;SDS011;55035;47.792;8.724;2022-09-30T15:20:53;6.37;;;1.20;;
68212;SDS011;55035;47.792;8.724;2022-09-30T15:23:22;4.45;;;1.33;;